Time;durP1;ratioP1;P1;durP2;ratioP2;P2;SDS_P1;SDS_P2;PMS_P1;PMS_P2;Temp;Humidity;BMP_temperature;BMP_pressure;BME280_temperature;BME280_humidity;BME280_pressure;Samples;Min_cycle;Max_cycle;Signal;HPM_P1;HPM_P2
2023/04/29 00:00:50;;;;;;;15.33;11.90;;;18.50;65.80;;;;;;5068461;28;20277;-48
2023/04/29 00:03:21;;;;;;;17.10;12.60;;;18.50;65.80;;;;;;5068362;28;20198;-48
2023/04/29 00:05:51;;;;;;;16.47;12.73;;;18.50;65.60;;;;;;5070712;28;20526;-48
2023/04/29 00:08:23;;;;;;;16.37;12.43;;;18.50;65.70;;;;;;5070695;28;20227;-48
2023/04/29 00:10:54;;;;;;;15.93;12.33;;;18.50;65.60;;;;;;5066894;28;20216;-48
2023/04/29 00:13:35;;;;;;;16.53;12.77;;;18.50;65.60;;;;;;5045691;28;20608;-48
2023/04/29 00:16:06;;;;;;;14.73;11.60;;;18.50;65.40;;;;;;5060080;28;20198;-48
2023/04/29 00:18:38;;;;;;;16.17;12.40;;;18.50;65.50;;;;;;5058929;28;20244;-47
2023/04/29 00:21:08;;;;;;;15.93;12.17;;;18.50;65.50;;;;;;5066802;28;20611;-47
2023/04/29 00:23:37;;;;;;;15.77;11.87;;;18.50;65.60;;;;;;5059602;28;20291;-47
2023/04/29 00:26:06;;;;;;;15.27;12.07;;;18.50;65.60;;;;;;5077505;28;20309;-53
2023/04/29 00:28:36;;;;;;;16.70;13.07;;;18.50;65.40;;;;;;5069441;28;20194;-47
2023/04/29 00:31:04;;;;;;;14.87;11.50;;;18.40;65.20;;;;;;5069968;28;20244;-47
2023/04/29 00:33:36;;;;;;;14.40;12.10;;;18.50;65.30;;;;;;5070426;28;20193;-47
2023/04/29 00:36:07;;;;;;;16.60;12.97;;;18.40;65.20;;;;;;5038608;28;20226;-49
2023/04/29 00:38:37;;;;;;;14.77;12.23;;;18.40;65.00;;;;;;5066282;28;20351;-47
2023/04/29 00:41:12;;;;;;;13.50;11.43;;;18.40;65.20;;;;;;5058158;28;20230;-47
2023/04/29 00:43:44;;;;;;;17.27;12.13;;;18.40;65.00;;;;;;5063605;28;20229;-47
2023/04/29 00:46:20;;;;;;;16.03;11.23;;;18.40;65.00;;;;;;5069513;28;20597;-47
2023/04/29 00:48:51;;;;;;;13.37;10.77;;;18.40;65.20;;;;;;5052476;28;20206;-47
2023/04/29 00:51:23;;;;;;;12.90;10.50;;;18.40;65.20;;;;;;5048573;28;20632;-47
2023/04/29 00:53:54;;;;;;;14.33;10.97;;;18.40;65.40;;;;;;5059174;28;20603;-47
2023/04/29 00:56:29;;;;;;;13.63;10.77;;;18.40;65.50;;;;;;5061524;28;20201;-47
2023/04/29 00:59:02;;;;;;;13.03;10.57;;;18.40;65.40;;;;;;5073082;28;20193;-47
2023/04/29 01:01:30;;;;;;;13.67;10.70;;;18.40;65.30;;;;;;5034003;28;20246;-47
2023/04/29 01:04:06;;;;;;;12.00;9.93;;;18.40;65.90;;;;;;5059815;28;20210;-47
2023/04/29 01:07:03;;;;;;;12.53;9.30;;;18.40;65.20;;;;;;5045020;28;20209;-47
2023/04/29 01:10:15;;;;;;;11.23;9.17;;;18.40;65.40;;;;;;5046651;28;20194;-47
2023/04/29 01:13:05;;;;;;;13.60;10.60;;;18.30;65.30;;;;;;5042840;28;20229;-47
2023/04/29 01:16:00;;;;;;;11.60;9.83;;;18.40;65.50;;;;;;5048695;28;20193;-47
2023/04/29 01:18:38;;;;;;;12.10;9.07;;;18.40;65.30;;;;;;5060780;28;20202;-47
2023/04/29 01:21:06;;;;;;;11.90;9.67;;;18.30;65.20;;;;;;5049002;28;20194;-48
2023/04/29 01:23:34;;;;;;;12.13;10.20;;;18.30;65.20;;;;;;5051448;28;20218;-48
2023/04/29 01:26:04;;;;;;;11.90;9.60;;;18.40;65.20;;;;;;5053541;28;20214;-47
2023/04/29 01:28:52;;;;;;;12.27;9.83;;;18.40;65.20;;;;;;5052603;28;20550;-47
2023/04/29 01:31:44;;;;;;;11.83;9.17;;;18.30;65.00;;;;;;5056807;28;20193;-47
2023/04/29 01:34:25;;;;;;;11.67;9.50;;;18.30;65.10;;;;;;5054430;28;20202;-47
2023/04/29 01:37:21;;;;;;;9.27;8.30;;;18.30;65.00;;;;;;5040166;28;20210;-47
2023/04/29 01:40:21;;;;;;;10.37;8.63;;;18.30;65.20;;;;;;5046868;28;20202;-47
2023/04/29 01:43:00;;;;;;;9.57;8.30;;;18.30;65.80;;;;;;5055388;28;20241;-47
2023/04/29 01:45:31;;;;;;;9.77;8.77;;;18.30;65.10;;;;;;5050046;28;20217;-47
2023/04/29 01:47:58;;;;;;;10.77;8.57;;;18.30;64.90;;;;;;5065061;28;20805;-47
2023/04/29 01:50:28;;;;;;;9.70;8.50;;;18.30;65.00;;;;;;5047987;28;20186;-48
2023/04/29 01:52:57;;;;;;;10.30;8.50;;;18.30;64.90;;;;;;5068767;28;20201;-47
2023/04/29 01:55:27;;;;;;;10.40;8.73;;;18.30;65.00;;;;;;5066379;28;20592;-47
2023/04/29 01:57:57;;;;;;;9.77;8.67;;;18.30;64.90;;;;;;5051640;28;20591;-47
2023/04/29 02:00:28;;;;;;;8.97;7.80;;;18.30;64.70;;;;;;5065428;28;20228;-48
2023/04/29 02:02:59;;;;;;;10.97;8.90;;;18.30;65.70;;;;;;5064349;28;20233;-47
2023/04/29 02:05:33;;;;;;;9.83;8.57;;;18.30;64.90;;;;;;5066893;28;20229;-47
2023/04/29 02:08:02;;;;;;;10.10;8.73;;;18.30;64.90;;;;;;5065245;28;20254;-47
2023/04/29 02:10:33;;;;;;;9.43;8.00;;;18.20;64.80;;;;;;5074480;28;20201;-47
2023/04/29 02:13:02;;;;;;;9.00;8.07;;;18.20;64.90;;;;;;5063751;28;20197;-47
2023/04/29 02:15:33;;;;;;;10.20;8.77;;;18.20;65.60;;;;;;5068092;28;20209;-47
2023/04/29 02:18:10;;;;;;;9.63;8.00;;;18.30;65.00;;;;;;5075445;28;20543;-47
2023/04/29 02:20:39;;;;;;;8.67;7.57;;;18.20;65.10;;;;;;5077342;28;20212;-47
2023/04/29 02:23:10;;;;;;;8.80;7.70;;;18.20;65.20;;;;;;5087096;28;20190;-47
2023/04/29 02:25:39;;;;;;;9.37;7.93;;;18.20;65.20;;;;;;5080320;28;20217;-47
2023/04/29 02:28:08;;;;;;;8.87;7.83;;;18.20;65.20;;;;;;5073350;28;20209;-47
2023/04/29 02:30:40;;;;;;;8.97;7.57;;;18.20;65.20;;;;;;5075006;28;20200;-47
2023/04/29 02:33:09;;;;;;;8.73;7.63;;;18.20;65.20;;;;;;5077671;28;20190;-47
2023/04/29 02:35:38;;;;;;;9.27;8.23;;;18.20;65.20;;;;;;5079617;28;20256;-47
2023/04/29 02:38:11;;;;;;;11.60;8.57;;;18.20;65.00;;;;;;5071666;28;20216;-47
2023/04/29 02:40:44;;;;;;;11.13;9.20;;;18.20;64.90;;;;;;5069877;28;20260;-47
2023/04/29 02:43:14;;;;;;;9.53;7.83;;;18.20;64.80;;;;;;5034127;28;20299;-47
2023/04/29 02:45:45;;;;;;;9.27;8.27;;;18.20;64.90;;;;;;5049951;28;20210;-47
2023/04/29 02:48:15;;;;;;;9.70;7.40;;;18.20;65.00;;;;;;5055560;28;20284;-47
2023/04/29 02:50:50;;;;;;;9.57;7.40;;;18.20;65.10;;;;;;5049619;28;20589;-47
2023/04/29 02:53:21;;;;;;;8.50;7.40;;;18.20;65.10;;;;;;5047648;28;20190;-47
2023/04/29 02:55:52;;;;;;;9.93;7.97;;;18.20;65.20;;;;;;5048118;28;20198;-47
2023/04/29 02:58:21;;;;;;;8.37;7.50;;;18.20;65.20;;;;;;5048249;28;20541;-47
2023/04/29 03:00:51;;;;;;;7.80;6.63;;;18.20;65.30;;;;;;5045524;28;20211;-47
2023/04/29 03:03:22;;;;;;;7.97;7.00;;;18.20;65.40;;;;;;5048996;28;20695;-47
2023/04/29 03:05:54;;;;;;;7.60;6.17;;;18.20;65.50;;;;;;5036191;28;20214;-47
2023/04/29 03:08:23;;;;;;;7.50;6.43;;;18.20;65.50;;;;;;5048218;28;20194;-47
2023/04/29 03:10:52;;;;;;;8.47;7.23;;;18.20;65.50;;;;;;5048691;28;20186;-47
2023/04/29 03:13:23;;;;;;;7.77;6.80;;;18.20;66.10;;;;;;5042830;28;20655;-47
2023/04/29 03:15:53;;;;;;;8.10;6.93;;;18.10;65.40;;;;;;5048390;28;20210;-47
2023/04/29 03:18:22;;;;;;;6.77;5.90;;;18.20;65.50;;;;;;5050827;28;20214;-47
2023/04/29 03:20:53;;;;;;;7.03;6.07;;;18.20;65.50;;;;;;5053907;28;20537;-47
2023/04/29 03:23:23;;;;;;;6.47;5.70;;;18.20;65.60;;;;;;5042393;28;20206;-47
2023/04/29 03:25:54;;;;;;;6.30;5.63;;;18.20;65.60;;;;;;5051208;28;20210;-47
2023/04/29 03:28:27;;;;;;;7.00;6.03;;;18.20;65.70;;;;;;5037769;28;20206;-47
2023/04/29 03:30:59;;;;;;;6.80;5.73;;;18.20;65.70;;;;;;5054317;28;20247;-47
2023/04/29 03:33:28;;;;;;;7.87;6.07;;;18.20;65.60;;;;;;5070040;28;20639;-47
2023/04/29 03:35:59;;;;;;;6.63;5.93;;;18.20;65.70;;;;;;5063603;28;20655;-47
2023/04/29 03:38:30;;;;;;;6.60;6.00;;;18.20;65.60;;;;;;5058669;28;20620;-47
2023/04/29 03:40:59;;;;;;;6.17;5.57;;;18.20;65.70;;;;;;5057738;28;20190;-47
2023/04/29 03:43:28;;;;;;;6.17;5.27;;;18.20;65.70;;;;;;5061529;28;20237;-47
2023/04/29 03:45:59;;;;;;;6.83;5.87;;;18.20;65.70;;;;;;5078688;28;20225;-47
2023/04/29 03:48:40;;;;;;;6.23;5.50;;;18.20;65.80;;;;;;5090095;28;20291;-47
2023/04/29 03:51:12;;;;;;;5.70;5.10;;;18.10;65.70;;;;;;5092040;28;20189;-47
2023/04/29 03:53:44;;;;;;;6.20;5.30;;;18.20;65.80;;;;;;5091424;28;20194;-47
2023/04/29 03:56:14;;;;;;;6.30;5.13;;;18.10;65.80;;;;;;5057027;28;20538;-47
2023/04/29 03:58:45;;;;;;;6.73;5.97;;;18.10;65.80;;;;;;5071584;28;20231;-47
2023/04/29 04:01:15;;;;;;;7.17;6.40;;;18.20;65.90;;;;;;5077707;28;20217;-47
2023/04/29 04:03:44;;;;;;;6.30;5.70;;;18.10;65.70;;;;;;5066746;28;20186;-48
2023/04/29 04:06:17;;;;;;;5.77;5.20;;;18.10;65.90;;;;;;5070961;28;20211;-47
2023/04/29 04:08:48;;;;;;;6.27;5.67;;;18.10;65.80;;;;;;5070536;28;20861;-47
2023/04/29 04:11:18;;;;;;;6.23;5.63;;;18.10;65.80;;;;;;5070720;28;20189;-47
2023/04/29 04:13:48;;;;;;;7.10;5.53;;;18.10;65.70;;;;;;5090414;28;20200;-47
2023/04/29 04:16:31;;;;;;;6.20;5.60;;;18.10;65.70;;;;;;5076398;28;20235;-47
2023/04/29 04:19:02;;;;;;;7.30;5.57;;;18.10;65.80;;;;;;5073021;28;20225;-47
2023/04/29 04:21:30;;;;;;;7.47;5.67;;;18.10;65.80;;;;;;5076759;28;20196;-47
2023/04/29 04:24:04;;;;;;;7.63;6.03;;;18.10;65.70;;;;;;5080651;28;20216;-47
2023/04/29 04:26:33;;;;;;;6.20;5.53;;;18.10;65.60;;;;;;5052959;28;20656;-47
2023/04/29 04:29:03;;;;;;;7.17;5.70;;;18.10;65.70;;;;;;5074091;28;20190;-47
2023/04/29 04:31:33;;;;;;;6.67;5.10;;;18.10;65.70;;;;;;5070328;28;20201;-47
2023/04/29 04:34:03;;;;;;;5.87;5.23;;;18.10;65.70;;;;;;5070560;28;20182;-47
2023/04/29 04:36:32;;;;;;;6.00;5.00;;;18.10;65.70;;;;;;5068299;28;20193;-46
2023/04/29 04:39:02;;;;;;;6.00;4.77;;;18.10;65.70;;;;;;5051011;28;20200;-47
2023/04/29 04:41:33;;;;;;;5.73;4.87;;;18.10;65.80;;;;;;5070641;28;20193;-47
2023/04/29 04:44:05;;;;;;;5.67;4.83;;;18.10;65.80;;;;;;5070576;28;20224;-46
2023/04/29 04:46:36;;;;;;;5.10;4.60;;;18.10;65.80;;;;;;5072544;28;20646;-47
2023/04/29 04:49:12;;;;;;;6.50;5.80;;;18.10;65.80;;;;;;5072147;28;20217;-47
2023/04/29 04:51:47;;;;;;;7.03;5.37;;;18.10;65.70;;;;;;5076587;28;20205;-47
2023/04/29 04:54:16;;;;;;;7.00;4.90;;;18.10;65.60;;;;;;5075009;28;20659;-47
2023/04/29 04:56:50;;;;;;;6.17;4.57;;;18.00;65.60;;;;;;5082278;28;20194;-47
2023/04/29 04:59:21;;;;;;;5.80;4.97;;;18.10;65.60;;;;;;5065926;28;20201;-47
2023/04/29 05:01:51;;;;;;;5.37;4.83;;;18.10;65.60;;;;;;5070441;28;20253;-47
2023/04/29 05:04:22;;;;;;;5.73;4.60;;;18.00;65.50;;;;;;5074117;28;20625;-47
2023/04/29 05:06:52;;;;;;;6.03;5.10;;;18.10;65.50;;;;;;5079820;28;20210;-47
2023/04/29 05:09:22;;;;;;;6.20;5.13;;;18.00;65.40;;;;;;5067908;28;20202;-47
2023/04/29 05:11:55;;;;;;;5.77;5.17;;;18.10;65.50;;;;;;5075470;28;20217;-46
2023/04/29 05:14:23;;;;;;;5.40;4.90;;;18.10;65.50;;;;;;5090264;28;20220;-46
2023/04/29 05:16:51;;;;;;;5.67;5.07;;;18.10;65.50;;;;;;5078412;28;20210;-46
2023/04/29 05:19:20;;;;;;;5.47;4.93;;;18.00;65.40;;;;;;5051310;28;20210;-46
2023/04/29 05:21:53;;;;;;;6.20;5.33;;;18.00;65.40;;;;;;5067676;28;20206;-48
2023/04/29 05:24:23;;;;;;;5.40;4.83;;;18.00;65.40;;;;;;5037153;28;20532;-46
2023/04/29 05:26:53;;;;;;;5.60;5.00;;;18.00;65.40;;;;;;5069911;28;20217;-46
2023/04/29 05:29:26;;;;;;;5.93;5.30;;;18.00;65.40;;;;;;5071460;28;20284;-48
2023/04/29 05:31:58;;;;;;;6.03;5.43;;;18.00;65.30;;;;;;5069302;28;20251;-48
2023/04/29 05:34:27;;;;;;;5.63;4.73;;;18.00;65.30;;;;;;5069909;28;20200;-48
2023/04/29 05:36:59;;;;;;;5.47;4.97;;;18.00;65.40;;;;;;5067708;28;20210;-47
2023/04/29 05:39:27;;;;;;;7.67;5.23;;;18.00;65.60;;;;;;5072975;28;20275;-47
2023/04/29 05:41:58;;;;;;;5.87;5.03;;;18.00;65.50;;;;;;5048019;28;20352;-47
2023/04/29 05:44:29;;;;;;;6.07;5.23;;;18.00;65.60;;;;;;5058569;28;20186;-47
2023/04/29 05:46:58;;;;;;;6.63;5.00;;;18.00;65.50;;;;;;5060393;28;20260;-47
2023/04/29 05:49:27;;;;;;;7.13;5.53;;;18.00;65.60;;;;;;5057536;28;20197;-47
2023/04/29 05:52:05;;;;;;;6.87;5.37;;;18.00;65.50;;;;;;5061293;28;20514;-47
2023/04/29 05:54:36;;;;;;;7.43;5.27;;;18.00;65.50;;;;;;5055887;28;20202;-48
2023/04/29 05:57:07;;;;;;;5.47;4.97;;;18.00;65.50;;;;;;5061792;28;20206;-47
2023/04/29 05:59:38;;;;;;;6.43;5.30;;;18.00;65.40;;;;;;5063709;28;20615;-47
2023/04/29 06:02:11;;;;;;;6.17;5.03;;;18.00;65.60;;;;;;5050840;28;20642;-47
2023/04/29 06:04:53;;;;;;;5.63;5.03;;;18.00;65.30;;;;;;5061679;28;20198;-47
2023/04/29 06:07:26;;;;;;;6.23;5.50;;;18.00;65.40;;;;;;5054635;28;20194;-47
2023/04/29 06:09:57;;;;;;;6.47;5.17;;;18.00;65.30;;;;;;5060937;28;21521;-47
2023/04/29 06:12:26;;;;;;;9.67;5.43;;;18.00;65.30;;;;;;5062055;28;20718;-47
2023/04/29 06:14:56;;;;;;;11.97;6.23;;;18.00;65.20;;;;;;5049620;28;20202;-47
2023/04/29 06:17:28;;;;;;;8.70;6.23;;;18.00;65.30;;;;;;5051393;28;20225;-47
2023/04/29 06:20:00;;;;;;;12.03;6.33;;;18.00;65.40;;;;;;5052521;28;20216;-47
2023/04/29 06:22:31;;;;;;;12.27;6.17;;;18.00;65.30;;;;;;5057719;28;20258;-47
2023/04/29 06:25:03;;;;;;;14.73;6.90;;;18.00;65.60;;;;;;5053592;28;20214;-47
2023/04/29 06:27:34;;;;;;;9.27;5.97;;;18.00;65.60;;;;;;5059198;28;20197;-47
2023/04/29 06:30:10;;;;;;;9.37;5.70;;;18.00;65.70;;;;;;5042778;28;20179;-49
2023/04/29 06:32:40;;;;;;;10.07;6.50;;;18.00;65.50;;;;;;5053179;28;20233;-48
2023/04/29 06:35:11;;;;;;;10.70;6.20;;;18.00;65.40;;;;;;5053711;28;20198;-47
2023/04/29 06:37:41;;;;;;;11.10;5.77;;;18.00;65.90;;;;;;5053434;28;20687;-48
2023/04/29 06:40:13;;;;;;;12.83;6.60;;;18.00;65.00;;;;;;5051151;28;20232;-48
2023/04/29 06:42:42;;;;;;;8.23;6.20;;;18.00;64.90;;;;;;5067905;28;20225;-48
2023/04/29 06:45:14;;;;;;;10.73;6.47;;;18.00;64.80;;;;;;5071316;28;20193;-48
2023/04/29 06:47:42;;;;;;;8.60;5.90;;;18.00;64.80;;;;;;5070006;28;20213;-48
2023/04/29 06:50:10;;;;;;;10.07;6.10;;;18.00;64.80;;;;;;5071403;28;20677;-49
2023/04/29 06:52:40;;;;;;;8.43;5.77;;;18.00;64.70;;;;;;5071886;28;20239;-48
2023/04/29 06:55:11;;;;;;;8.87;6.10;;;18.00;64.60;;;;;;5066037;28;20267;-48
2023/04/29 06:57:42;;;;;;;10.60;5.83;;;18.00;64.60;;;;;;5069299;28;20197;-48
2023/04/29 07:00:22;;;;;;;8.27;5.93;;;18.00;65.10;;;;;;5077755;28;20220;-47
2023/04/29 07:02:52;;;;;;;6.90;5.40;;;18.00;64.60;;;;;;5081108;28;20189;-47
2023/04/29 07:05:26;;;;;;;7.77;5.93;;;18.00;64.60;;;;;;5090251;28;20862;-47
2023/04/29 07:08:00;;;;;;;7.83;5.27;;;18.00;64.70;;;;;;5074792;28;20646;-47
2023/04/29 07:10:32;;;;;;;6.73;5.73;;;18.00;64.70;;;;;;5084612;28;20560;-48
2023/04/29 07:13:05;;;;;;;7.93;5.37;;;18.00;64.70;;;;;;5088861;28;20228;-46
2023/04/29 07:15:36;;;;;;;10.03;5.90;;;18.00;64.60;;;;;;5085620;28;20193;-47
2023/04/29 07:18:05;;;;;;;7.00;5.13;;;18.00;64.60;;;;;;5079344;28;20221;-46
2023/04/29 07:20:38;;;;;;;6.80;4.70;;;18.00;64.50;;;;;;5093091;28;20192;-47
2023/04/29 07:23:05;;;;;;;6.83;5.60;;;18.00;64.60;;;;;;5069033;28;20214;-49
2023/04/29 07:25:35;;;;;;;7.10;5.17;;;18.00;64.60;;;;;;5093463;28;20216;-48
2023/04/29 07:28:07;;;;;;;5.33;4.37;;;18.00;64.60;;;;;;5063952;28;20193;-46
2023/04/29 07:30:53;;;;;;;5.70;4.73;;;18.00;64.50;;;;;;5094322;28;20631;-48
2023/04/29 07:33:23;;;;;;;6.50;4.97;;;18.00;64.60;;;;;;5081073;28;20196;-48
2023/04/29 07:35:54;;;;;;;7.83;5.40;;;18.00;64.50;;;;;;5090408;28;20246;-48
2023/04/29 07:38:23;;;;;;;7.37;5.17;;;18.00;64.50;;;;;;5093474;28;20219;-48
2023/04/29 07:40:52;;;;;;;6.90;5.10;;;18.00;64.50;;;;;;5094442;28;20520;-48
2023/04/29 07:43:23;;;;;;;8.80;4.90;;;18.00;64.50;;;;;;5090179;28;20233;-48
2023/04/29 07:45:57;;;;;;;6.43;5.00;;;18.00;64.60;;;;;;5088627;28;20228;-48
2023/04/29 07:48:38;;;;;;;7.87;5.57;;;18.00;64.50;;;;;;5108171;28;20216;-48
2023/04/29 07:51:11;;;;;;;6.40;4.83;;;18.00;64.40;;;;;;5089639;28;20201;-46
2023/04/29 07:53:42;;;;;;;8.07;5.70;;;18.00;64.50;;;;;;5075454;28;20599;-49
2023/04/29 07:56:11;;;;;;;7.30;5.73;;;18.00;64.40;;;;;;5093514;28;20185;-48
2023/04/29 07:58:41;;;;;;;5.83;5.23;;;18.00;64.40;;;;;;5081735;28;20208;-48
2023/04/29 08:01:11;;;;;;;6.83;5.33;;;18.00;64.30;;;;;;5087476;28;20368;-47
2023/04/29 08:03:44;;;;;;;7.33;6.00;;;18.00;64.20;;;;;;5094261;28;20627;-48
2023/04/29 08:06:16;;;;;;;7.70;5.77;;;18.10;64.20;;;;;;5093630;28;20225;-47
2023/04/29 08:08:47;;;;;;;6.63;5.67;;;18.10;64.20;;;;;;5093529;28;20190;-47
2023/04/29 08:11:18;;;;;;;6.13;5.53;;;18.00;64.30;;;;;;5089761;28;20215;-48
2023/04/29 08:13:46;;;;;;;6.90;5.60;;;18.00;64.30;;;;;;5079315;28;20258;-47
2023/04/29 08:16:20;;;;;;;7.40;5.57;;;18.00;64.90;;;;;;5060003;28;20235;-46
2023/04/29 08:18:52;;;;;;;6.73;5.37;;;18.10;64.30;;;;;;5094551;28;20203;-47
2023/04/29 08:21:22;;;;;;;5.93;5.30;;;18.10;64.10;;;;;;5090376;28;20201;-48
2023/04/29 08:23:54;;;;;;;6.17;5.20;;;18.10;64.20;;;;;;5092065;28;20660;-48
2023/04/29 08:26:25;;;;;;;6.37;5.33;;;18.10;64.10;;;;;;5093586;28;20221;-47
2023/04/29 08:28:56;;;;;;;7.27;5.40;;;18.10;64.20;;;;;;5097424;28;20587;-47
2023/04/29 08:31:28;;;;;;;7.90;5.33;;;18.10;64.20;;;;;;5087011;28;20199;-47
2023/04/29 08:33:59;;;;;;;6.83;5.40;;;18.10;64.00;;;;;;5085456;28;20196;-47
2023/04/29 08:36:33;;;;;;;6.33;5.70;;;18.10;63.90;;;;;;5090490;28;20220;-47
2023/04/29 08:39:14;;;;;;;7.40;6.17;;;18.10;64.10;;;;;;5088142;28;20197;-47
2023/04/29 08:41:50;;;;;;;6.60;5.73;;;18.10;64.10;;;;;;5090732;28;20237;-47
2023/04/29 08:44:28;;;;;;;6.40;5.60;;;18.10;64.00;;;;;;5091366;28;20200;-47
2023/04/29 08:47:01;;;;;;;6.87;5.67;;;18.10;64.10;;;;;;5093112;28;20220;-47
2023/04/29 08:49:32;;;;;;;7.97;6.03;;;18.10;64.00;;;;;;5090971;28;20196;-47
2023/04/29 08:52:03;;;;;;;5.97;5.37;;;18.10;64.10;;;;;;5080958;28;20188;-47
2023/04/29 08:54:35;;;;;;;8.07;6.00;;;18.10;64.10;;;;;;5107997;28;20189;-47
2023/04/29 08:57:05;;;;;;;6.50;5.80;;;18.10;64.00;;;;;;5105301;28;20203;-47
2023/04/29 08:59:35;;;;;;;7.10;5.97;;;18.10;63.90;;;;;;5091221;28;20212;-47
2023/04/29 09:02:11;;;;;;;7.87;5.87;;;18.10;63.90;;;;;;5102864;28;20560;-47
2023/04/29 09:05:06;;;;;;;7.97;5.87;;;18.10;63.90;;;;;;5086793;28;20196;-48
2023/04/29 09:07:41;;;;;;;6.63;5.80;;;18.10;64.00;;;;;;5104260;28;20223;-46
2023/04/29 09:10:11;;;;;;;7.80;5.80;;;18.10;64.10;;;;;;5106990;28;20189;-47
2023/04/29 09:12:39;;;;;;;6.83;5.73;;;18.10;64.00;;;;;;5088837;28;20626;-48
2023/04/29 09:15:10;;;;;;;6.73;6.03;;;18.10;63.90;;;;;;5108061;28;20204;-49
2023/04/29 09:17:48;;;;;;;8.10;6.20;;;18.10;64.00;;;;;;5076238;28;20257;-48
2023/04/29 09:20:24;;;;;;;7.50;5.97;;;18.10;64.00;;;;;;5085689;28;20191;-46
2023/04/29 09:22:57;;;;;;;7.77;6.40;;;18.10;63.90;;;;;;5090269;28;20185;-47
2023/04/29 09:25:39;;;;;;;6.23;5.23;;;18.10;64.10;;;;;;5077251;28;20224;-47
2023/04/29 09:28:17;;;;;;;5.93;5.10;;;18.10;64.10;;;;;;5089719;28;20201;-47
2023/04/29 09:30:49;;;;;;;6.17;5.57;;;18.10;64.10;;;;;;5090304;28;20225;-47
2023/04/29 09:33:19;;;;;;;6.33;5.23;;;18.10;64.00;;;;;;5087482;28;20201;-47
2023/04/29 09:35:50;;;;;;;6.50;5.53;;;18.10;64.10;;;;;;5087300;28;20303;-47
2023/04/29 09:38:20;;;;;;;6.50;5.90;;;18.10;64.20;;;;;;5090101;28;20197;-47
2023/04/29 09:40:52;;;;;;;6.20;5.60;;;18.10;64.20;;;;;;5090030;28;20424;-47
2023/04/29 09:43:27;;;;;;;7.23;6.00;;;18.20;64.20;;;;;;5086832;28;20332;-48
2023/04/29 09:46:13;;;;;;;7.20;6.17;;;18.20;64.20;;;;;;5089887;28;20658;-48
2023/04/29 09:48:43;;;;;;;6.30;5.70;;;18.20;64.20;;;;;;5082903;28;20207;-48
2023/04/29 09:51:13;;;;;;;8.40;5.90;;;18.20;64.20;;;;;;5087103;28;20258;-48
2023/04/29 09:53:54;;;;;;;6.20;5.30;;;18.20;64.20;;;;;;5089442;28;20196;-48
2023/04/29 09:56:29;;;;;;;6.27;5.47;;;18.20;64.30;;;;;;5096409;28;20207;-48
2023/04/29 09:59:10;;;;;;;7.93;5.73;;;18.20;64.30;;;;;;5076488;28;20235;-48
2023/04/29 10:01:38;;;;;;;6.00;5.40;;;18.20;64.20;;;;;;5089663;28;20189;-48
2023/04/29 10:04:29;;;;;;;5.93;5.30;;;18.20;64.30;;;;;;5089052;28;20211;-48
2023/04/29 10:07:08;;;;;;;6.60;5.57;;;18.20;64.20;;;;;;5074474;28;20545;-48
2023/04/29 10:09:40;;;;;;;6.67;5.27;;;18.20;64.20;;;;;;5074007;28;20189;-48
2023/04/29 10:12:14;;;;;;;6.60;5.90;;;18.30;64.40;;;;;;5085611;28;20771;-48
2023/04/29 10:14:58;;;;;;;6.13;5.23;;;18.20;64.20;;;;;;5071905;28;20216;-49
2023/04/29 10:17:54;;;;;;;7.87;5.23;;;18.30;64.30;;;;;;5087901;28;20344;-47
2023/04/29 10:20:27;;;;;;;6.60;5.40;;;18.30;64.30;;;;;;5074565;28;20199;-47
2023/04/29 10:23:01;;;;;;;8.23;5.40;;;18.30;64.40;;;;;;5106475;28;20200;-47
2023/04/29 10:25:38;;;;;;;7.67;5.23;;;18.30;64.30;;;;;;5102684;28;20223;-47
2023/04/29 10:28:18;;;;;;;8.23;5.30;;;18.30;64.30;;;;;;5082327;28;20235;-47
2023/04/29 10:30:54;;;;;;;7.93;4.70;;;18.30;64.30;;;;;;5069500;28;20257;-47
2023/04/29 10:33:32;;;;;;;7.33;4.80;;;18.30;64.20;;;;;;5114028;28;20200;-47
2023/04/29 10:36:04;;;;;;;6.53;5.03;;;18.30;64.20;;;;;;5071089;28;20290;-47
2023/04/29 10:38:45;;;;;;;6.97;5.53;;;18.40;64.30;;;;;;5093335;28;20193;-47
2023/04/29 10:41:31;;;;;;;6.63;5.10;;;18.40;64.20;;;;;;5079104;28;20192;-46
2023/04/29 10:44:00;;;;;;;7.73;4.80;;;18.40;64.30;;;;;;5066964;28;20244;-46
2023/04/29 10:46:36;;;;;;;6.93;5.03;;;18.40;64.20;;;;;;5072594;28;20221;-48
2023/04/29 10:49:09;;;;;;;5.27;4.67;;;18.40;64.20;;;;;;5067845;28;20217;-46
2023/04/29 10:51:44;;;;;;;7.67;5.30;;;18.40;64.10;;;;;;5073298;28;20198;-48
2023/04/29 10:54:24;;;;;;;9.60;5.23;;;18.40;64.20;;;;;;5071596;28;20201;-48
2023/04/29 10:56:54;;;;;;;8.90;5.90;;;18.40;64.20;;;;;;5072710;28;20479;-48
2023/04/29 10:59:35;;;;;;;8.17;5.23;;;18.50;64.10;;;;;;5069863;28;20222;-48
2023/04/29 11:02:06;;;;;;;8.93;4.90;;;18.50;64.20;;;;;;5072245;28;20205;-48
2023/04/29 11:05:26;;;;;;;7.97;5.03;;;18.50;64.20;;;;;;5085316;28;20203;-48
2023/04/29 11:08:23;;;;;;;5.30;4.80;;;18.50;64.20;;;;;;5070518;28;20201;-48
2023/04/29 11:10:59;;;;;;;7.43;4.80;;;18.50;64.20;;;;;;5055653;28;20182;-47
2023/04/29 11:13:30;;;;;;;7.93;5.50;;;18.50;64.20;;;;;;5052755;28;20595;-47
2023/04/29 11:16:04;;;;;;;8.40;5.37;;;18.50;64.00;;;;;;5072002;28;20616;-47
2023/04/29 11:18:38;;;;;;;6.90;4.93;;;18.50;64.30;;;;;;5072913;28;20201;-47
2023/04/29 11:21:08;;;;;;;6.83;4.87;;;18.50;64.10;;;;;;5041743;28;20185;-47
2023/04/29 11:23:40;;;;;;;5.80;5.03;;;18.60;64.20;;;;;;5061306;28;20217;-47
2023/04/29 11:26:10;;;;;;;5.87;4.73;;;18.60;64.10;;;;;;5065556;28;20220;-47
2023/04/29 11:28:42;;;;;;;6.60;5.23;;;18.60;64.10;;;;;;5070855;28;20595;-47
2023/04/29 11:31:11;;;;;;;6.57;4.90;;;18.60;64.10;;;;;;5048136;28;20197;-47
2023/04/29 11:33:43;;;;;;;5.73;4.37;;;18.60;64.20;;;;;;5067725;28;20698;-46
2023/04/29 11:36:14;;;;;;;7.13;5.30;;;18.60;64.20;;;;;;5069794;28;20666;-47
2023/04/29 11:38:45;;;;;;;7.10;5.10;;;18.60;64.20;;;;;;5080999;28;20239;-47
2023/04/29 11:41:17;;;;;;;6.37;5.13;;;18.60;64.10;;;;;;5071612;28;20196;-47
2023/04/29 11:43:46;;;;;;;6.60;4.80;;;18.60;64.30;;;;;;5077683;28;20233;-47
2023/04/29 11:46:19;;;;;;;6.67;5.10;;;18.60;64.30;;;;;;5089861;28;20201;-47
2023/04/29 11:48:50;;;;;;;6.73;4.87;;;18.60;64.30;;;;;;5079528;28;20784;-47
2023/04/29 11:51:22;;;;;;;5.10;4.03;;;18.60;64.60;;;;;;5050981;28;20204;-47
2023/04/29 11:53:52;;;;;;;5.97;4.70;;;18.60;64.30;;;;;;5091894;28;20193;-47
2023/04/29 11:56:24;;;;;;;6.60;4.80;;;18.60;64.30;;;;;;5070904;28;20210;-47
2023/04/29 11:59:06;;;;;;;5.53;4.33;;;18.60;64.30;;;;;;5075259;28;20600;-47
2023/04/29 12:01:36;;;;;;;5.97;4.50;;;18.60;64.40;;;;;;5088090;28;20190;-47
2023/04/29 12:04:07;;;;;;;5.80;4.90;;;18.60;64.30;;;;;;5083203;28;20204;-47
2023/04/29 12:06:36;;;;;;;4.90;4.33;;;18.60;64.20;;;;;;5073867;28;20251;-47
2023/04/29 12:09:09;;;;;;;5.87;4.73;;;18.60;64.30;;;;;;5075657;28;20193;-47
2023/04/29 12:11:40;;;;;;;6.33;4.70;;;18.60;64.40;;;;;;5068652;28;20210;-47
2023/04/29 12:14:11;;;;;;;6.90;4.90;;;18.70;64.40;;;;;;5055816;28;20197;-47
2023/04/29 12:16:42;;;;;;;5.80;4.10;;;18.70;64.50;;;;;;5042545;28;20247;-47
2023/04/29 12:19:12;;;;;;;4.57;4.17;;;18.70;64.40;;;;;;5069341;28;20202;-47
2023/04/29 12:21:48;;;;;;;5.03;4.47;;;18.70;64.50;;;;;;5071800;28;20201;-47
2023/04/29 12:24:19;;;;;;;6.43;4.50;;;18.70;64.40;;;;;;5048377;28;20442;-46
2023/04/29 12:27:08;;;;;;;5.87;4.50;;;18.70;64.50;;;;;;5054707;28;20304;-46
2023/04/29 12:29:39;;;;;;;4.83;4.00;;;18.70;64.60;;;;;;5058665;28;20499;-46
2023/04/29 12:32:24;;;;;;;5.60;4.13;;;18.70;64.60;;;;;;5071167;28;20189;-46
2023/04/29 12:34:54;;;;;;;5.27;4.20;;;18.70;64.60;;;;;;5053698;28;20193;-48
2023/04/29 12:37:22;;;;;;;4.97;3.60;;;18.70;64.60;;;;;;5068909;28;20247;-49
2023/04/29 12:39:54;;;;;;;4.63;4.03;;;18.70;64.70;;;;;;5081663;28;20237;-48
2023/04/29 12:42:32;;;;;;;5.33;4.17;;;18.70;64.70;;;;;;5060928;28;20236;-48
2023/04/29 12:45:05;;;;;;;4.50;4.10;;;18.70;64.60;;;;;;5053711;28;20204;-47
2023/04/29 12:47:33;;;;;;;6.50;4.50;;;18.70;64.70;;;;;;5071495;28;20237;-48
2023/04/29 12:50:07;;;;;;;5.47;4.67;;;18.70;64.70;;;;;;5078545;28;20206;-48
2023/04/29 12:52:36;;;;;;;4.30;3.87;;;18.70;64.60;;;;;;5074699;28;20519;-48
2023/04/29 12:55:10;;;;;;;5.13;4.10;;;18.70;64.70;;;;;;5068556;28;20197;-48
2023/04/29 12:57:39;;;;;;;5.27;3.80;;;18.70;64.80;;;;;;5057832;28;20228;-47
2023/04/29 13:00:10;;;;;;;5.47;4.03;;;18.70;64.70;;;;;;5078802;28;20744;-47
2023/04/29 13:02:42;;;;;;;4.63;4.00;;;18.70;64.80;;;;;;5069972;28;20255;-47
2023/04/29 13:05:11;;;;;;;4.67;3.63;;;18.70;65.40;;;;;;5068607;28;20197;-47
2023/04/29 13:07:41;;;;;;;4.20;3.67;;;18.70;64.80;;;;;;5073037;28;20224;-47
2023/04/29 13:10:13;;;;;;;4.07;3.67;;;18.80;64.80;;;;;;5053707;28;20194;-47
2023/04/29 13:12:47;;;;;;;4.20;3.80;;;18.70;64.80;;;;;;5059600;28;20213;-47